createdAt,value
2024-04-14T00:00:10.097Z,11.95
2024-04-14T00:01:10.128Z,11.59
2024-04-14T00:02:10.098Z,8.42
2024-04-14T00:03:10.110Z,6.49
2024-04-14T00:04:10.490Z,5.31
2024-04-14T00:05:10.174Z,4.51
2024-04-14T00:06:10.116Z,3.83
2024-04-14T00:07:10.100Z,3.40
2024-04-14T00:08:10.102Z,3.13
2024-04-14T00:09:10.104Z,2.81
2024-04-14T00:10:10.107Z,2.63
2024-04-14T00:11:10.212Z,2.44
2024-04-14T00:12:10.119Z,2.25
2024-04-14T00:13:10.107Z,2.19
2024-04-14T00:14:10.123Z,2.09
2024-04-14T00:15:10.106Z,2.04
2024-04-14T00:16:10.101Z,1.94
2024-04-14T00:17:10.111Z,1.86
2024-04-14T00:18:10.257Z,1.82
2024-04-14T00:19:11.090Z,1.75
2024-04-14T00:20:10.307Z,1.73
2024-04-14T00:21:10.383Z,1.67
2024-04-14T00:22:10.439Z,1.64
2024-04-14T00:23:10.540Z,1.66
2024-04-14T00:24:10.582Z,1.59
2024-04-14T00:25:10.658Z,1.57
2024-04-14T00:26:10.719Z,1.58
2024-04-14T00:27:10.802Z,1.50
2024-04-14T00:28:10.848Z,1.55
2024-04-14T00:29:10.927Z,1.50
2024-04-14T00:30:10.992Z,1.50
2024-04-14T00:31:11.068Z,1.48
2024-04-14T00:32:11.169Z,1.44
2024-04-14T00:33:11.255Z,1.41
2024-04-14T00:34:11.387Z,1.41
2024-04-14T00:35:11.361Z,1.45
2024-04-14T00:36:11.470Z,1.39
2024-04-14T00:37:11.498Z,1.38
2024-04-14T00:38:11.562Z,1.39
2024-04-14T00:39:11.650Z,1.38
2024-04-14T00:40:11.729Z,1.34
2024-04-14T00:41:11.774Z,1.35
2024-04-14T00:42:11.842Z,1.34
2024-04-14T00:43:11.939Z,1.34
2024-04-14T00:44:11.982Z,1.35
2024-04-14T00:45:12.069Z,1.33
2024-04-14T00:46:12.130Z,1.33
2024-04-14T00:47:12.211Z,1.32
2024-04-14T00:48:12.370Z,1.27
2024-04-14T00:49:12.509Z,1.33
2024-04-14T00:50:12.415Z,1.30
2024-04-14T00:51:12.480Z,1.30
2024-04-14T00:52:12.543Z,1.28
2024-04-14T00:53:12.633Z,1.26
2024-04-14T00:54:12.712Z,1.27
2024-04-14T00:55:12.773Z,1.29
2024-04-14T00:56:12.850Z,1.28
2024-04-14T00:57:12.904Z,1.25
2024-04-14T00:58:12.995Z,1.26
2024-04-14T00:59:13.067Z,1.26
2024-04-14T01:00:13.101Z,1.27
2024-04-14T01:01:13.235Z,1.24
2024-04-14T01:02:13.233Z,1.23
2024-04-14T01:03:13.324Z,1.28
2024-04-14T01:04:13.457Z,1.25
2024-04-14T01:05:13.435Z,1.21
2024-04-14T01:06:13.508Z,1.28
2024-04-14T01:07:13.574Z,1.24
2024-04-14T01:08:13.649Z,1.23
2024-04-14T01:09:13.705Z,1.24
2024-04-14T01:10:13.780Z,1.23
2024-04-14T01:11:13.890Z,1.22
2024-04-14T01:12:13.908Z,1.22
2024-04-14T01:13:13.974Z,1.23
2024-04-14T01:14:14.041Z,1.25
2024-04-14T01:15:14.122Z,1.22
2024-04-14T01:16:14.177Z,1.21
2024-04-14T01:17:14.298Z,1.22
2024-04-14T01:18:14.374Z,1.20
2024-04-14T01:19:14.425Z,1.24
2024-04-14T01:20:14.467Z,1.22
2024-04-14T01:21:14.543Z,1.22
2024-04-14T01:22:14.623Z,1.22
2024-04-14T01:23:14.680Z,1.20
2024-04-14T01:24:14.760Z,1.20
2024-04-14T01:25:14.830Z,1.20
2024-04-14T01:26:14.896Z,1.21
2024-04-14T01:27:16.251Z,1.20
2024-04-14T01:28:15.100Z,1.19
2024-04-14T01:29:15.173Z,1.23
2024-04-14T01:30:15.229Z,1.20
2024-04-14T01:31:15.322Z,1.19
2024-04-14T01:32:15.429Z,1.16
2024-04-14T01:33:15.493Z,1.17
2024-04-14T01:34:15.563Z,1.18
2024-04-14T01:35:15.580Z,1.18
2024-04-14T01:36:15.627Z,1.18
2024-04-14T01:37:15.686Z,1.20
2024-04-14T01:38:22.071Z,1.17
2024-04-14T01:39:15.768Z,1.18
2024-04-14T01:40:15.761Z,1.18
2024-04-14T01:41:15.760Z,1.19
2024-04-14T01:42:15.758Z,1.19
2024-04-14T01:43:15.763Z,1.17
2024-04-14T01:44:15.758Z,1.17
2024-04-14T01:45:15.759Z,1.18
2024-04-14T01:46:15.771Z,1.16
2024-04-14T01:47:15.791Z,1.18
2024-04-14T01:48:15.967Z,1.15
2024-04-14T01:49:15.864Z,1.16
2024-04-14T01:50:15.777Z,1.18
2024-04-14T01:51:15.786Z,1.16
2024-04-14T01:52:15.779Z,1.17
2024-04-14T01:53:15.795Z,1.16
2024-04-14T01:54:15.778Z,1.17
2024-04-14T01:55:15.831Z,1.14
2024-04-14T01:56:15.784Z,1.17
2024-04-14T01:57:15.805Z,1.15
2024-04-14T01:58:15.792Z,1.13
2024-04-14T01:59:15.806Z,1.14
2024-04-14T02:00:15.785Z,1.15
2024-04-14T02:01:15.833Z,1.16
2024-04-14T02:02:15.781Z,1.15
2024-04-14T02:03:15.950Z,1.14
2024-04-14T02:04:16.109Z,1.14
2024-04-14T02:05:15.876Z,1.15
2024-04-14T02:06:15.941Z,1.12
2024-04-14T02:07:16.002Z,1.12
2024-04-14T02:08:16.077Z,1.14
2024-04-14T02:09:16.146Z,1.14
2024-04-14T02:10:16.208Z,1.15
2024-04-14T02:11:16.278Z,1.12
2024-04-14T02:12:16.283Z,1.13
2024-04-14T02:13:16.436Z,1.14
2024-04-14T02:14:16.402Z,1.15
2024-04-14T02:15:16.480Z,1.11
2024-04-14T02:16:16.562Z,1.12
2024-04-14T02:17:16.599Z,1.14
2024-04-14T02:18:16.826Z,1.10
2024-04-14T02:19:16.907Z,1.11
2024-04-14T02:20:16.776Z,1.12
2024-04-14T02:21:16.837Z,1.12
2024-04-14T02:22:16.914Z,1.11
2024-04-14T02:23:17.063Z,1.09
2024-04-14T02:24:17.002Z,1.11
2024-04-14T02:25:17.069Z,1.10
2024-04-14T02:26:17.124Z,1.08
2024-04-14T02:27:17.203Z,1.12
2024-04-14T02:28:17.259Z,1.10
2024-04-14T02:29:17.314Z,1.09
2024-04-14T02:30:17.365Z,1.11
2024-04-14T02:31:17.435Z,1.13
2024-04-14T02:32:17.517Z,1.09
2024-04-14T02:33:17.527Z,1.09
2024-04-14T02:34:17.586Z,1.07
2024-04-14T02:35:17.656Z,1.08
2024-04-14T02:36:17.698Z,1.10
2024-04-14T02:37:17.785Z,1.09
2024-04-14T02:38:17.832Z,1.06
2024-04-14T02:39:17.867Z,1.09
2024-04-14T02:40:17.938Z,1.09
2024-04-14T02:41:17.994Z,1.10
2024-04-14T02:42:18.054Z,1.08
2024-04-14T02:43:18.108Z,1.09
2024-04-14T02:44:18.172Z,1.07
2024-04-14T02:45:18.241Z,1.09
2024-04-14T02:46:18.306Z,1.07
2024-04-14T02:47:18.370Z,1.06
2024-04-14T02:48:18.514Z,1.07
2024-04-14T02:49:18.526Z,1.05
2024-04-14T02:50:18.529Z,1.07
2024-04-14T02:51:18.608Z,1.09
2024-04-14T02:52:18.667Z,1.04
2024-04-14T02:53:18.703Z,1.06
2024-04-14T02:54:18.744Z,1.04
2024-04-14T02:55:18.784Z,1.07
2024-04-14T02:56:18.823Z,1.05
2024-04-14T02:57:18.864Z,1.05
2024-04-14T02:58:18.915Z,1.05
2024-04-14T02:59:19.009Z,1.03
2024-04-14T03:00:19.010Z,1.05
2024-04-14T03:01:19.147Z,1.04
2024-04-14T03:02:19.077Z,1.04
2024-04-14T03:03:19.107Z,1.04
2024-04-14T03:04:21.031Z,1.00
2024-04-14T03:05:19.166Z,1.00
2024-04-14T03:06:19.164Z,1.01
2024-04-14T03:07:19.167Z,1.01
2024-04-14T03:08:19.152Z,1.01
2024-04-14T03:09:19.155Z,1.01
2024-04-14T03:10:19.160Z,1.03
2024-04-14T03:11:19.216Z,0.99
2024-04-14T03:12:19.168Z,1.00
2024-04-14T03:13:19.161Z,1.01
2024-04-14T03:14:19.163Z,0.98
2024-04-14T03:15:19.168Z,0.99
2024-04-14T03:16:19.209Z,1.02
2024-04-14T03:17:19.161Z,1.00
2024-04-14T03:18:19.174Z,0.99
2024-04-14T03:19:19.164Z,0.97
2024-04-14T03:20:19.169Z,0.97
2024-04-14T03:21:22.680Z,0.96
2024-04-14T03:22:19.183Z,0.97
2024-04-14T03:23:19.191Z,0.97
2024-04-14T03:24:19.178Z,0.98
2024-04-14T03:25:19.172Z,0.99
2024-04-14T03:26:19.165Z,1.00
2024-04-14T03:27:19.193Z,1.00
2024-04-14T03:28:19.174Z,0.98
2024-04-14T03:29:19.186Z,0.98
2024-04-14T03:30:19.175Z,0.98
2024-04-14T03:31:19.251Z,0.97
2024-04-14T03:32:19.192Z,0.94
2024-04-14T03:33:19.173Z,0.96
2024-04-14T03:34:19.187Z,0.94
2024-04-14T03:35:19.176Z,0.97
2024-04-14T03:36:19.178Z,0.95
2024-04-14T03:37:19.170Z,0.96
2024-04-14T03:38:19.177Z,0.94
2024-04-14T03:39:19.218Z,0.95
2024-04-14T03:40:19.195Z,0.93
2024-04-14T03:41:19.194Z,0.93
2024-04-14T03:42:19.194Z,0.95
2024-04-14T03:43:19.203Z,0.95
2024-04-14T03:44:19.183Z,0.93
2024-04-14T03:45:19.195Z,0.94
2024-04-14T03:46:19.188Z,0.91
2024-04-14T03:47:19.188Z,0.93
2024-04-14T03:48:19.299Z,0.92
2024-04-14T03:49:19.285Z,0.94
2024-04-14T03:50:19.198Z,0.93
2024-04-14T03:51:19.208Z,0.92
2024-04-14T03:52:19.192Z,0.95
2024-04-14T03:53:19.204Z,0.91
2024-04-14T03:54:19.191Z,0.91
2024-04-14T03:55:19.224Z,0.93
2024-04-14T03:56:19.231Z,0.91
2024-04-14T03:57:19.212Z,0.91
2024-04-14T03:58:19.198Z,0.90
2024-04-14T03:59:19.647Z,0.90
2024-04-14T04:00:19.207Z,0.92
2024-04-14T04:01:19.312Z,0.91
2024-04-14T04:02:19.246Z,0.90
2024-04-14T04:03:19.209Z,0.88
2024-04-14T04:04:19.352Z,0.91
2024-04-14T04:05:19.216Z,0.92
2024-04-14T04:06:19.206Z,0.90
2024-04-14T04:07:19.204Z,0.88
2024-04-14T04:08:19.211Z,0.91
2024-04-14T04:09:19.210Z,0.90
2024-04-14T04:10:19.218Z,0.88
2024-04-14T04:11:19.319Z,0.88
2024-04-14T04:12:19.223Z,0.86
2024-04-14T04:13:19.212Z,0.89
2024-04-14T04:14:19.218Z,0.87
2024-04-14T04:15:19.245Z,0.87
2024-04-14T04:16:19.224Z,0.90
2024-04-14T04:17:19.225Z,0.85
2024-04-14T04:18:19.287Z,0.86
2024-04-14T04:19:25.975Z,0.88
2024-04-14T04:20:19.230Z,0.88
2024-04-14T04:21:19.230Z,0.89
2024-04-14T04:22:19.232Z,0.89
2024-04-14T04:23:19.241Z,0.89
2024-04-14T04:24:22.561Z,0.90
2024-04-14T04:25:19.249Z,0.88
2024-04-14T04:26:19.263Z,0.89
2024-04-14T04:27:19.261Z,0.89
2024-04-14T04:28:19.267Z,0.90
2024-04-14T04:29:19.257Z,0.91
2024-04-14T04:30:19.321Z,0.90
2024-04-14T04:31:19.264Z,0.89
2024-04-14T04:32:19.269Z,0.87
2024-04-14T04:33:19.381Z,0.87
2024-04-14T04:34:19.319Z,0.85
2024-04-14T04:35:19.274Z,0.88
2024-04-14T04:36:19.266Z,0.85
2024-04-14T04:37:26.446Z,0.50
2024-04-14T04:38:27.444Z,0.50
2024-04-14T04:39:27.460Z,0.50
2024-04-14T04:40:27.447Z,0.50
2024-04-14T04:41:27.439Z,0.50
2024-04-14T04:42:27.552Z,0.50
2024-04-14T04:43:27.466Z,0.50
2024-04-14T04:44:27.458Z,0.51
2024-04-14T04:45:27.503Z,0.50
2024-04-14T04:46:27.451Z,0.51
2024-04-14T04:47:27.571Z,0.51
2024-04-14T04:48:27.683Z,0.49
2024-04-14T04:49:27.624Z,0.54
2024-04-14T04:50:27.520Z,0.52
2024-04-14T04:51:27.627Z,0.52
2024-04-14T04:52:27.670Z,0.51
2024-04-14T04:53:27.747Z,0.51
2024-04-14T04:54:27.819Z,0.51
2024-04-14T04:55:27.862Z,0.52
2024-04-14T04:56:28.021Z,0.51
2024-04-14T04:57:28.035Z,0.52
2024-04-14T04:58:28.100Z,0.51
2024-04-14T04:59:28.142Z,0.51
2024-04-14T05:00:28.317Z,0.51
2024-04-14T05:01:28.468Z,0.50
2024-04-14T05:02:28.378Z,0.52
2024-04-14T05:03:32.001Z,0.52
2024-04-14T05:04:28.528Z,0.52
2024-04-14T05:05:28.542Z,0.52
2024-04-14T05:06:28.612Z,0.52
2024-04-14T05:07:28.675Z,0.51
2024-04-14T05:08:28.735Z,0.50
2024-04-14T05:09:28.818Z,0.52
2024-04-14T05:10:31.841Z,0.51
2024-04-14T05:11:28.899Z,0.51
2024-04-14T05:12:28.941Z,0.51
2024-04-14T05:13:28.876Z,0.50
2024-04-14T05:14:28.887Z,0.51
2024-04-14T05:15:28.920Z,0.51
2024-04-14T05:16:28.896Z,0.51
2024-04-14T05:17:28.927Z,0.50
2024-04-14T05:18:29.033Z,0.51
2024-04-14T05:19:28.943Z,0.51
2024-04-14T05:20:28.891Z,0.51
2024-04-14T05:21:28.965Z,0.51
2024-04-14T05:22:28.922Z,0.50
2024-04-14T05:23:28.893Z,0.51
2024-04-14T05:24:28.918Z,0.51
2024-04-14T05:25:28.910Z,0.51
2024-04-14T05:26:28.979Z,0.51
2024-04-14T05:27:29.066Z,0.52
2024-04-14T05:28:29.089Z,0.52
2024-04-14T05:29:29.161Z,0.51
2024-04-14T05:30:29.302Z,0.51
2024-04-14T05:31:29.305Z,0.52
2024-04-14T05:32:29.483Z,0.51
2024-04-14T05:33:29.502Z,0.51
2024-04-14T05:34:29.497Z,0.51
2024-04-14T05:35:29.554Z,0.51
2024-04-14T05:36:29.698Z,0.51
2024-04-14T05:37:29.693Z,0.50
2024-04-14T05:38:29.762Z,0.51
2024-04-14T05:39:29.849Z,0.52
2024-04-14T05:40:29.875Z,0.50
2024-04-14T05:41:29.943Z,0.50
2024-04-14T05:42:30.051Z,0.51
2024-04-14T05:43:30.116Z,0.52
2024-04-14T05:44:30.169Z,0.52
2024-04-14T05:45:30.324Z,0.51
2024-04-14T05:46:30.312Z,0.51
2024-04-14T05:47:30.408Z,0.52
2024-04-14T05:48:30.510Z,0.52
2024-04-14T05:49:30.624Z,0.51
2024-04-14T05:50:30.581Z,0.52
2024-04-14T05:51:30.660Z,0.53
2024-04-14T05:52:30.716Z,0.52
2024-04-14T05:53:30.783Z,0.52
2024-04-14T05:54:30.900Z,0.50
2024-04-14T05:55:30.934Z,0.51
2024-04-14T05:56:31.000Z,0.51
2024-04-14T05:57:31.095Z,0.52
2024-04-14T05:58:31.147Z,0.52
2024-04-14T05:59:31.216Z,0.52
2024-04-14T06:00:31.394Z,0.53
2024-04-14T06:01:31.446Z,0.50
2024-04-14T06:02:31.478Z,0.51
2024-04-14T06:03:31.552Z,0.50
2024-04-14T06:04:31.709Z,0.51
2024-04-14T06:05:31.665Z,0.51
2024-04-14T06:06:31.743Z,0.52
2024-04-14T06:07:34.449Z,0.52
2024-04-14T06:08:31.786Z,0.52
2024-04-14T06:09:31.813Z,0.52
2024-04-14T06:10:31.796Z,0.52
2024-04-14T06:11:31.789Z,0.52
2024-04-14T06:12:31.814Z,0.51
2024-04-14T06:13:31.808Z,0.51
2024-04-14T06:14:31.867Z,0.51
2024-04-14T06:15:32.018Z,0.52
2024-04-14T06:16:32.104Z,0.51
2024-04-14T06:17:32.117Z,0.52
2024-04-14T06:18:32.198Z,0.52
2024-04-14T06:19:32.240Z,0.51
2024-04-14T06:20:32.295Z,0.51
2024-04-14T06:21:32.414Z,0.52
2024-04-14T06:22:32.433Z,0.52
2024-04-14T06:23:32.547Z,0.51
2024-04-14T06:24:32.583Z,0.52
2024-04-14T06:25:32.648Z,0.51
2024-04-14T06:26:32.714Z,0.51
2024-04-14T06:27:32.839Z,0.51
2024-04-14T06:28:32.881Z,0.51
2024-04-14T06:29:35.219Z,0.53
2024-04-14T06:30:32.952Z,0.53
2024-04-14T06:31:32.946Z,0.53
2024-04-14T06:32:33.042Z,0.53
2024-04-14T06:33:33.041Z,0.52
2024-04-14T06:34:32.969Z,0.52
2024-04-14T06:35:32.947Z,0.52
2024-04-14T06:36:32.968Z,0.51
2024-04-14T06:37:32.952Z,0.52
2024-04-14T06:38:32.987Z,0.52
2024-04-14T06:39:32.947Z,0.53
2024-04-14T06:40:32.949Z,0.53
2024-04-14T06:41:32.946Z,0.51
2024-04-14T06:42:32.970Z,0.53
2024-04-14T06:43:32.952Z,0.51
2024-04-14T06:44:32.953Z,0.52
2024-04-14T06:45:33.012Z,0.53
2024-04-14T06:46:32.955Z,0.52
2024-04-14T06:47:35.052Z,0.52
2024-04-14T06:48:33.000Z,0.53
2024-04-14T06:49:32.960Z,0.53
2024-04-14T06:50:32.984Z,0.53
2024-04-14T06:51:32.970Z,0.52
2024-04-14T06:52:32.972Z,0.51
2024-04-14T06:53:32.964Z,0.53
2024-04-14T06:54:32.978Z,0.53
2024-04-14T06:55:35.510Z,0.52
2024-04-14T06:56:32.968Z,0.52
2024-04-14T06:57:33.014Z,0.52
2024-04-14T06:58:32.977Z,0.52
2024-04-14T06:59:32.968Z,0.52
2024-04-14T07:00:33.011Z,0.52
2024-04-14T07:01:33.074Z,0.52
2024-04-14T07:02:33.036Z,0.53
2024-04-14T07:03:33.042Z,0.52
2024-04-14T07:04:33.162Z,0.53
2024-04-14T07:05:32.986Z,0.52
2024-04-14T07:06:33.020Z,0.52
2024-04-14T07:07:35.364Z,0.52
2024-04-14T07:08:32.986Z,0.52
2024-04-14T07:09:32.989Z,0.52
2024-04-14T07:10:32.985Z,0.52
2024-04-14T07:11:33.020Z,0.53
2024-04-14T07:12:33.006Z,0.53
2024-04-14T07:13:32.987Z,0.53
2024-04-14T07:14:32.986Z,0.54
2024-04-14T07:15:33.005Z,0.52
2024-04-14T07:16:32.999Z,0.52
2024-04-14T07:17:33.032Z,0.52
2024-04-14T07:18:33.070Z,0.53
2024-04-14T07:19:33.003Z,0.53
2024-04-14T07:20:32.999Z,0.54
2024-04-14T07:21:33.024Z,0.53
2024-04-14T07:22:33.068Z,0.52
2024-04-14T07:23:33.307Z,0.51
2024-04-14T07:24:33.265Z,0.53
2024-04-14T07:25:33.341Z,0.52
2024-04-14T07:26:33.353Z,0.52
2024-04-14T07:27:33.506Z,0.53
2024-04-14T07:28:33.480Z,0.53
2024-04-14T07:29:33.566Z,0.53
2024-04-14T07:30:33.656Z,0.53
2024-04-14T07:31:33.742Z,0.54
2024-04-14T07:32:33.832Z,0.53
2024-04-14T07:33:34.017Z,0.53
2024-04-14T07:34:33.916Z,0.54
2024-04-14T07:35:33.979Z,0.53
2024-04-14T07:36:34.099Z,0.53
2024-04-14T07:37:34.107Z,0.53
2024-04-14T07:38:34.199Z,0.54
2024-04-14T07:39:36.924Z,0.53
2024-04-14T07:40:34.244Z,0.53
2024-04-14T07:41:34.260Z,0.53
2024-04-14T07:42:34.301Z,0.53
2024-04-14T07:43:34.254Z,0.54
2024-04-14T07:44:34.260Z,0.53
2024-04-14T07:45:34.281Z,0.53
2024-04-14T07:46:34.256Z,0.54
2024-04-14T07:47:34.332Z,0.53
2024-04-14T07:48:34.342Z,0.54
2024-04-14T07:49:34.273Z,0.53
2024-04-14T07:50:34.263Z,0.53
2024-04-14T07:51:34.320Z,0.53
2024-04-14T07:52:34.262Z,0.53
2024-04-14T07:53:34.259Z,0.54
2024-04-14T07:54:37.391Z,0.54
2024-04-14T07:55:34.298Z,0.54
2024-04-14T07:56:34.365Z,0.54
2024-04-14T07:57:34.451Z,0.54
2024-04-14T07:58:34.477Z,0.54
2024-04-14T07:59:34.545Z,0.55
2024-04-14T08:00:34.637Z,0.56
2024-04-14T08:01:34.707Z,0.56
2024-04-14T08:02:34.764Z,0.56
2024-04-14T08:03:46.780Z,0.55
2024-04-14T08:04:35.044Z,0.55
2024-04-14T08:05:37.674Z,0.55
2024-04-14T08:06:34.972Z,0.55
2024-04-14T08:07:35.038Z,0.56
2024-04-14T08:08:35.047Z,0.56
2024-04-14T08:09:35.099Z,0.57
2024-04-14T08:10:35.187Z,0.56
2024-04-14T08:11:35.225Z,0.57
2024-04-14T08:12:35.267Z,0.56
2024-04-14T08:13:35.315Z,0.55
2024-04-14T08:14:35.380Z,0.57
2024-04-14T08:15:35.471Z,0.55
2024-04-14T08:16:35.532Z,0.56
2024-04-14T08:17:35.598Z,0.55
2024-04-14T08:18:35.669Z,0.56
2024-04-14T08:19:35.740Z,0.56
2024-04-14T08:20:35.779Z,0.56
2024-04-14T08:21:37.183Z,0.56
2024-04-14T08:22:35.859Z,0.56
2024-04-14T08:23:35.855Z,0.57
2024-04-14T08:24:35.879Z,0.58
2024-04-14T08:25:35.859Z,0.57
2024-04-14T08:26:35.901Z,0.56
2024-04-14T08:27:35.902Z,0.56
2024-04-14T08:28:35.882Z,0.55
2024-04-14T08:29:35.868Z,0.57
2024-04-14T08:30:35.919Z,0.56
2024-04-14T08:31:35.872Z,0.56
2024-04-14T08:32:35.883Z,0.56
2024-04-14T08:33:35.930Z,0.56
2024-04-14T08:34:35.944Z,0.56
2024-04-14T08:35:35.876Z,0.56
2024-04-14T08:36:35.904Z,0.56
2024-04-14T08:37:35.886Z,0.57
2024-04-14T08:38:35.878Z,0.56
2024-04-14T08:39:35.921Z,0.54
2024-04-14T08:40:35.882Z,0.55
2024-04-14T08:41:35.890Z,0.56
2024-04-14T08:42:35.921Z,0.55
2024-04-14T08:43:38.104Z,0.55
2024-04-14T08:44:35.892Z,0.57
2024-04-14T08:45:35.899Z,0.55
2024-04-14T08:46:36.080Z,0.56
2024-04-14T08:47:35.928Z,0.55
2024-04-14T08:48:35.915Z,0.55
2024-04-14T08:49:35.904Z,0.54
2024-04-14T08:50:35.905Z,0.56
2024-04-14T08:51:35.964Z,0.55
2024-04-14T08:52:35.911Z,0.54
2024-04-14T08:53:35.904Z,0.54
2024-04-14T08:54:35.974Z,0.53
2024-04-14T08:55:35.921Z,0.54
2024-04-14T08:56:35.950Z,0.53
2024-04-14T08:57:35.910Z,0.54
2024-04-14T08:58:35.931Z,0.54
2024-04-14T08:59:35.917Z,0.56
2024-04-14T09:00:35.947Z,0.56
2024-04-14T09:01:36.238Z,0.54
2024-04-14T09:02:35.953Z,0.54
2024-04-14T09:03:36.054Z,0.55
2024-04-14T09:04:35.988Z,0.54
2024-04-14T09:05:36.368Z,0.54
2024-04-14T09:06:36.205Z,0.53
2024-04-14T09:07:35.962Z,0.55
2024-04-14T09:08:36.021Z,0.54
2024-04-14T09:09:36.134Z,0.56
2024-04-14T09:10:36.142Z,0.54
2024-04-14T09:11:36.191Z,0.56
2024-04-14T09:12:36.284Z,0.56
2024-04-14T09:13:36.318Z,0.55
2024-04-14T09:14:36.402Z,0.55
2024-04-14T09:15:36.491Z,0.56
2024-04-14T09:16:36.646Z,0.55
2024-04-14T09:17:36.573Z,0.54
2024-04-14T09:18:36.658Z,0.54
2024-04-14T09:19:40.140Z,0.54
2024-04-14T09:20:36.677Z,0.54
2024-04-14T09:21:36.699Z,0.54
2024-04-14T09:22:36.680Z,0.54
2024-04-14T09:23:36.685Z,0.55
2024-04-14T09:24:36.709Z,0.54
2024-04-14T09:25:36.720Z,0.56
2024-04-14T09:26:36.679Z,0.53
2024-04-14T09:27:36.726Z,0.55
2024-04-14T09:28:36.693Z,0.55
2024-04-14T09:29:36.695Z,0.55
2024-04-14T09:30:36.774Z,0.55
2024-04-14T09:31:36.848Z,0.56
2024-04-14T09:32:36.903Z,0.57
2024-04-14T09:33:36.957Z,0.56
2024-04-14T09:34:36.952Z,0.56
2024-04-14T09:35:37.015Z,0.55
2024-04-14T09:36:37.135Z,0.56
2024-04-14T09:37:37.177Z,0.56
2024-04-14T09:38:37.286Z,0.57
2024-04-14T09:39:37.355Z,0.56
2024-04-14T09:40:37.307Z,0.56
2024-04-14T09:41:37.382Z,0.56
2024-04-14T09:42:37.430Z,0.55
2024-04-14T09:43:37.498Z,0.57
2024-04-14T09:44:37.571Z,0.56
2024-04-14T09:45:37.652Z,0.56
2024-04-14T09:46:37.691Z,0.57
2024-04-14T09:47:37.864Z,0.57
2024-04-14T09:48:37.865Z,0.55
2024-04-14T09:49:37.845Z,0.57
2024-04-14T09:50:37.913Z,0.57
2024-04-14T09:51:38.017Z,0.56
2024-04-14T09:52:38.052Z,0.56
2024-04-14T09:53:38.090Z,0.56
2024-04-14T09:54:38.154Z,0.57
2024-04-14T09:55:40.559Z,0.58
2024-04-14T09:56:38.178Z,0.57
2024-04-14T09:57:38.180Z,0.57
2024-04-14T09:58:38.176Z,0.56
2024-04-14T09:59:38.191Z,0.57
2024-04-14T10:00:38.302Z,0.55
2024-04-14T10:01:38.265Z,0.56
2024-04-14T10:02:38.225Z,0.56
2024-04-14T10:03:38.361Z,0.56
2024-04-14T10:04:38.293Z,0.57
2024-04-14T10:05:38.192Z,0.57
2024-04-14T10:06:38.243Z,0.58
2024-04-14T10:07:38.187Z,0.56
2024-04-14T10:08:38.192Z,0.57
2024-04-14T10:09:38.224Z,0.56
2024-04-14T10:10:38.205Z,0.58
2024-04-14T10:11:38.206Z,0.58
2024-04-14T10:12:38.226Z,0.58
2024-04-14T10:13:38.200Z,0.57
2024-04-14T10:14:38.200Z,0.58
2024-04-14T10:15:38.242Z,0.56
2024-04-14T10:16:38.251Z,0.58
2024-04-14T10:17:38.239Z,0.58
2024-04-14T10:18:38.218Z,0.58
2024-04-14T10:19:38.208Z,0.57
2024-04-14T10:20:38.205Z,0.58
2024-04-14T10:21:38.275Z,0.58
2024-04-14T10:22:38.224Z,0.58
2024-04-14T10:23:38.211Z,0.59
2024-04-14T10:24:38.245Z,0.59
2024-04-14T10:25:38.221Z,0.60
2024-04-14T10:26:38.219Z,0.60
2024-04-14T10:27:38.245Z,0.60
2024-04-14T10:28:38.243Z,0.60
2024-04-14T10:29:38.282Z,0.58
2024-04-14T10:30:38.350Z,0.59
2024-04-14T10:31:38.383Z,0.59
2024-04-14T10:32:38.458Z,0.59
2024-04-14T10:33:38.515Z,0.59
2024-04-14T10:34:38.625Z,0.58
2024-04-14T10:35:38.547Z,0.59
2024-04-14T10:36:38.643Z,0.58
2024-04-14T10:37:38.627Z,0.60
2024-04-14T10:38:38.672Z,0.59
2024-04-14T10:39:38.722Z,0.58
2024-04-14T10:40:38.772Z,0.58
2024-04-14T10:41:38.807Z,0.58
2024-04-14T10:42:38.862Z,0.60
2024-04-14T10:43:38.889Z,0.60
2024-04-14T10:44:38.936Z,0.60
2024-04-14T10:45:39.017Z,0.59
2024-04-14T10:46:39.037Z,0.59
2024-04-14T10:47:39.072Z,0.58
2024-04-14T10:48:39.146Z,0.59
2024-04-14T10:49:39.137Z,0.59
2024-04-14T10:50:39.197Z,0.58
2024-04-14T10:51:39.235Z,0.59
2024-04-14T10:52:39.245Z,0.57
2024-04-14T10:53:39.283Z,0.57
2024-04-14T10:54:39.397Z,0.59
2024-04-14T10:55:39.379Z,0.57
2024-04-14T10:56:39.415Z,0.59
2024-04-14T10:57:39.479Z,0.58
2024-04-14T10:58:39.503Z,0.59
2024-04-14T10:59:39.555Z,0.58
2024-04-14T11:00:39.656Z,0.58
2024-04-14T11:01:39.751Z,0.58
2024-04-14T11:02:39.710Z,0.59
2024-04-14T11:03:39.769Z,0.58
2024-04-14T11:04:40.028Z,0.59
2024-04-14T11:05:39.816Z,0.59
2024-04-14T11:06:39.889Z,0.57
2024-04-14T11:07:39.883Z,0.58
2024-04-14T11:08:40.148Z,0.58
2024-04-14T11:09:39.982Z,0.58
2024-04-14T11:10:40.013Z,0.58
2024-04-14T11:11:40.045Z,0.58
2024-04-14T11:12:40.124Z,0.59
2024-04-14T11:13:40.120Z,0.58
2024-04-14T11:14:40.146Z,0.59
2024-04-14T11:15:40.252Z,0.60
2024-04-14T11:16:40.367Z,0.59
2024-04-14T11:17:40.314Z,0.59
2024-04-14T11:18:40.342Z,0.59
2024-04-14T11:19:40.354Z,0.57
2024-04-14T11:20:40.379Z,0.59
2024-04-14T11:21:40.472Z,0.58
2024-04-14T11:22:40.465Z,0.59
2024-04-14T11:23:40.488Z,0.58
2024-04-14T11:24:40.536Z,0.58
2024-04-14T11:25:40.554Z,0.59
2024-04-14T11:26:40.585Z,0.60
2024-04-14T11:27:40.652Z,0.60
2024-04-14T11:28:40.661Z,0.59
2024-04-14T11:29:40.701Z,0.59
2024-04-14T11:30:40.755Z,0.60
2024-04-14T11:31:40.780Z,0.61
2024-04-14T11:32:41.004Z,0.59
2024-04-14T11:33:40.971Z,0.60
2024-04-14T11:34:40.925Z,0.59
2024-04-14T11:35:40.922Z,0.59
2024-04-14T11:36:40.999Z,0.60
2024-04-14T11:37:41.002Z,0.60
2024-04-14T11:38:41.061Z,0.60
2024-04-14T11:39:41.100Z,0.60
2024-04-14T11:40:41.116Z,0.61
2024-04-14T11:41:41.155Z,0.61
2024-04-14T11:42:41.221Z,0.62
2024-04-14T11:43:41.230Z,0.60
2024-04-14T11:44:41.289Z,0.61
2024-04-14T11:45:41.368Z,0.61
2024-04-14T11:46:41.389Z,0.61
2024-04-14T11:47:41.497Z,0.63
2024-04-14T11:48:41.443Z,0.62
2024-04-14T11:49:41.426Z,0.62
2024-04-14T11:50:41.460Z,0.62
2024-04-14T11:51:41.520Z,0.62
2024-04-14T11:52:41.529Z,0.63
2024-04-14T11:53:41.564Z,0.63
2024-04-14T11:54:41.652Z,0.64
2024-04-14T11:55:41.635Z,0.64
2024-04-14T11:56:41.658Z,0.63
2024-04-14T11:57:41.736Z,0.64
2024-04-14T11:58:41.714Z,0.63
2024-04-14T11:59:41.752Z,0.64
2024-04-14T12:00:41.883Z,0.64
2024-04-14T12:01:41.878Z,0.66
2024-04-14T12:02:41.935Z,0.65
2024-04-14T12:03:41.865Z,0.66
2024-04-14T12:04:41.935Z,0.65
2024-04-14T12:05:41.922Z,0.65
2024-04-14T12:06:41.977Z,0.65
2024-04-14T12:07:41.979Z,0.65
2024-04-14T12:08:42.013Z,0.64
2024-04-14T12:09:42.075Z,0.67
2024-04-14T12:10:42.137Z,0.67
2024-04-14T12:11:42.088Z,0.66
2024-04-14T12:12:42.181Z,0.64
2024-04-14T12:13:42.160Z,0.67
2024-04-14T12:14:42.209Z,0.67
2024-04-14T12:15:42.256Z,0.67
2024-04-14T12:16:42.326Z,0.65
2024-04-14T12:17:42.301Z,0.67
2024-04-14T12:18:42.365Z,0.66
2024-04-14T12:19:42.326Z,0.68
2024-04-14T12:20:42.356Z,0.67
2024-04-14T12:21:42.422Z,0.67
2024-04-14T12:22:42.415Z,0.67
2024-04-14T12:23:42.438Z,0.67
2024-04-14T12:24:42.512Z,0.67
2024-04-14T12:25:42.495Z,0.68
2024-04-14T12:26:42.547Z,0.68
2024-04-14T12:27:42.605Z,0.67
2024-04-14T12:28:42.584Z,0.68
2024-04-14T12:29:42.619Z,0.69
2024-04-14T12:30:50.011Z,0.69
2024-04-14T12:31:42.647Z,0.69
2024-04-14T12:32:42.674Z,0.70
2024-04-14T12:33:42.754Z,0.70
2024-04-14T12:34:42.654Z,0.69
2024-04-14T12:35:42.652Z,0.70
2024-04-14T12:36:42.673Z,0.70
2024-04-14T12:37:42.668Z,0.70
2024-04-14T12:38:42.667Z,0.70
2024-04-14T12:39:42.694Z,0.69
2024-04-14T12:40:42.676Z,0.67
2024-04-14T12:41:42.665Z,0.69
2024-04-14T12:42:42.699Z,0.70
2024-04-14T12:43:42.673Z,0.69
2024-04-14T12:44:42.684Z,0.69
2024-04-14T12:45:42.692Z,0.69
2024-04-14T12:46:42.708Z,0.69
2024-04-14T12:47:42.699Z,0.69
2024-04-14T12:48:42.739Z,0.70
2024-04-14T12:49:42.682Z,0.69
2024-04-14T12:50:44.832Z,0.68
2024-04-14T12:51:42.719Z,0.68
2024-04-14T12:52:42.692Z,0.69
2024-04-14T12:53:42.687Z,0.70
2024-04-14T12:54:42.690Z,0.69
2024-04-14T12:55:42.689Z,0.71
2024-04-14T12:56:42.685Z,0.69
2024-04-14T12:57:42.758Z,0.71
2024-04-14T12:58:42.704Z,0.69
2024-04-14T12:59:42.689Z,0.71
2024-04-14T13:00:42.755Z,0.71
2024-04-14T13:01:42.704Z,0.69
2024-04-14T13:02:42.722Z,0.70
2024-04-14T13:03:42.722Z,0.73
2024-04-14T13:04:42.702Z,0.70
2024-04-14T13:05:42.707Z,0.70
2024-04-14T13:06:42.736Z,0.70
2024-04-14T13:07:42.726Z,0.71
2024-04-14T13:08:42.724Z,0.71
2024-04-14T13:09:42.737Z,0.69
2024-04-14T13:10:42.718Z,0.70
2024-04-14T13:11:42.763Z,0.70
2024-04-14T13:12:42.761Z,0.71
2024-04-14T13:13:42.725Z,0.69
2024-04-14T13:14:42.735Z,0.71
2024-04-14T13:15:42.742Z,0.73
2024-04-14T13:16:42.774Z,0.72
2024-04-14T13:17:42.762Z,0.71
2024-04-14T13:18:42.759Z,0.73